.
WxDataArchive / Data Records for 2008-09-30
2008-09-29 September 2008 2008-10-01

Data Records for Tuesday, 30 September 2008

Time	Temp	Chill	HIndex	Humid	Dewpt	 Wind 	HiWind	WindDir	Rain 	Barom 
-----	----	-----	------	-----	-----	------	------	-------	-----	----- 
00:00	58.9	58.9	58.9	88	55.3	0	3	315	0.00	29.854 
00:05	58.7	58.7	58.7	88	55.2	0	2	315	0.00	29.851 
00:10	58.7	58.7	58.7	88	55.2	1	2	315	0.00	29.850 
00:15	58.6	58.6	58.6	88	55.1	0	2	315	0.00	29.848 
00:20	58.4	58.4	58.4	88	54.9	0	2	270	0.00	29.848 
00:25	58.4	58.4	58.4	88	54.9	0	2	270	0.00	29.849 
00:30	58.4	58.4	58.4	88	54.9	0	2	270	0.00	29.841 
00:35	58.4	58.4	58.4	88	54.9	0	2	270	0.00	29.839 
00:40	58.4	58.4	58.4	88	54.9	0	4	270	0.00	29.840 
00:45	58.3	58.3	58.3	88	54.8	0	4	270	0.00	29.840 
00:50	58.1	58.1	58.1	88	54.6	0	2	270	0.00	29.840 
00:55	58.0	58.0	58.0	88	54.5	0	3	270	0.00	29.838 
01:00	57.8	57.8	57.8	89	54.6	0	2	292	0.00	29.840 
01:05	57.8	57.8	57.8	89	54.6	0	2	292	0.00	29.838 
01:10	57.8	57.8	57.8	88	54.3	0	1	292	0.00	29.835 
01:15	57.8	57.8	57.8	88	54.3	0	2	292	0.00	29.836 
01:20	57.6	57.6	57.6	88	54.1	0	2	292	0.00	29.835 
01:25	57.5	57.5	57.5	88	54.0	0	1	292	0.00	29.834 
01:30	57.5	57.5	57.5	88	54.0	0	1	292	0.00	29.834 
01:35	57.3	57.3	57.3	89	54.1	0	1	292	0.00	29.836 
01:40	57.2	57.2	57.2	89	54.0	0	3	292	0.00	29.836 
01:45	57.0	57.0	57.0	90	54.1	0	2	292	0.00	29.837 
01:50	56.9	56.9	56.9	90	54.0	0	2	292	0.00	29.839 
01:55	56.9	56.9	56.9	90	54.0	0	1	292	0.00	29.839 
02:00	56.7	56.7	56.7	90	53.8	0	1	292	0.00	29.839 
02:05	56.6	56.6	56.6	91	54.0	0	1	292	0.00	29.850 
02:10	56.5	56.5	56.5	91	53.9	0	1	292	0.00	29.851 
02:15	56.5	56.5	56.5	91	53.9	0	1	292	0.00	29.852 
02:20	56.3	56.3	56.3	91	53.7	0	1	292	0.00	29.851 
02:25	56.2	56.2	56.2	92	53.9	0	2	292	0.00	29.853 
02:30	56.0	56.0	56.0	92	53.7	0	2	292	0.00	29.854 
02:35	56.0	56.0	56.0	92	53.7	0	1	292	0.00	29.854 
02:40	55.9	55.9	55.9	92	53.6	0	1	292	0.00	29.852 
02:45	55.9	55.9	55.9	92	53.6	0	2	292	0.00	29.849 
02:50	55.9	55.9	55.9	92	53.6	0	2	292	0.00	29.847 
02:55	55.9	55.9	55.9	92	53.6	0	2	292	0.00	29.847 
03:00	55.9	55.9	55.9	92	53.6	0	2	292	0.00	29.846 
03:05	55.9	55.9	55.9	92	53.6	0	1	292	0.00	29.841 
03:10	55.9	55.9	55.9	92	53.6	0	3	292	0.00	29.837 
03:15	56.0	56.0	56.0	92	53.7	0	2	292	0.00	29.837 
03:20	56.0	56.0	56.0	92	53.7	0	2	315	0.00	29.836 
03:25	56.2	56.2	56.2	92	53.9	0	2	315	0.00	29.835 
03:30	56.2	56.2	56.2	92	53.9	0	2	315	0.00	29.833 
03:35	56.2	56.2	56.2	92	53.9	0	2	315	0.00	29.835 
03:40	56.3	56.3	56.3	92	54.0	0	1	315	0.00	29.836 
03:45	56.3	56.3	56.3	92	54.0	0	1	315	0.00	29.831 
03:50	56.3	56.3	56.3	92	54.0	0	1	315	0.00	29.833 
03:55	56.5	56.5	56.5	92	54.2	0	1	315	0.00	29.833 
04:00	56.3	56.3	56.3	92	54.0	0	1	315	0.00	29.832 
04:05	56.3	56.3	56.3	92	54.0	0	1	315	0.00	29.834 
04:10	56.3	56.3	56.3	92	54.0	0	1	315	0.00	29.832 
04:15	56.3	56.3	56.3	92	54.0	0	1	315	0.00	29.829 
04:20	56.3	56.3	56.3	92	54.0	0	2	315	0.00	29.833 
04:25	56.3	56.3	56.3	92	54.0	0	1	315	0.00	29.837 
04:30	56.3	56.3	56.3	92	54.0	0	1	315	0.00	29.838 
04:35	56.3	56.3	56.3	92	54.0	0	1	315	0.00	29.841 
04:40	56.2	56.2	56.2	92	53.9	0	1	315	0.00	29.843 
04:45	56.2	56.2	56.2	92	53.9	0	1	315	0.00	29.842 
04:50	56.2	56.2	56.2	92	53.9	0	1	315	0.00	29.844 
04:55	56.0	56.0	56.0	92	53.7	0	1	315	0.00	29.844 
05:00	56.0	56.0	56.0	92	53.7	0	1	315	0.00	29.847 
05:05	56.0	56.0	56.0	92	53.7	0	1	315	0.00	29.848 
05:10	56.0	56.0	56.0	92	53.7	0	1	315	0.00	29.846 
05:15	56.2	56.2	56.2	92	53.9	0	1	315	0.00	29.850 
05:20	56.2	56.2	56.2	92	53.9	0	1	315	0.00	29.852 
05:25	56.3	56.3	56.3	92	54.0	0	2	315	0.00	29.852 
05:30	56.3	56.3	56.3	92	54.0	0	1	315	0.00	29.849 
05:35	56.3	56.3	56.3	92	54.0	0	2	315	0.00	29.849 
05:40	56.3	56.3	56.3	92	54.0	0	1	315	0.00	29.851 
05:45	56.3	56.3	56.3	92	54.0	0	1	315	0.00	29.850 
05:50	56.3	56.3	56.3	92	54.0	0	1	315	0.00	29.849 
05:55	56.5	56.5	56.5	92	54.2	0	1	315	0.00	29.851 
06:00	56.5	56.5	56.5	92	54.2	0	2	315	0.00	29.851 
06:05	56.5	56.5	56.5	92	54.2	0	1	315	0.00	29.853 
06:10	56.3	56.3	56.3	92	54.0	0	1	315	0.00	29.853 
06:15	56.3	56.3	56.3	92	54.0	0	1	315	0.00	29.852 
06:20	56.2	56.2	56.2	92	53.9	0	1	315	0.00	29.852 
06:25	56.0	56.0	56.0	92	53.7	0	0	---	0.00	29.849 
06:30	55.9	55.9	55.9	92	53.6	0	0	---	0.00	29.849 
06:35	55.7	55.7	55.7	92	53.4	0	0	---	0.00	29.850 
06:40	55.4	55.4	55.4	92	53.1	0	0	---	0.00	29.851 
06:45	55.3	55.3	55.3	92	53.0	0	0	---	0.00	29.851 
06:50	55.1	55.1	55.1	92	52.8	0	0	---	0.00	29.849 
06:55	55.1	55.1	55.1	93	53.1	0	0	---	0.00	29.847 
07:00	55.1	55.1	55.1	93	53.1	0	0	---	0.00	29.846 
07:05	55.1	55.1	55.1	93	53.1	0	0	---	0.00	29.848 
07:10	55.1	55.1	55.1	93	53.1	0	0	---	0.00	29.847 
07:15	55.1	55.1	55.1	94	53.4	0	1	315	0.00	29.847 
07:20	55.4	55.4	55.4	94	53.7	0	1	315	0.00	29.845 
07:25	55.6	55.6	55.6	94	53.9	0	2	315	0.00	29.844 
07:30	55.9	55.9	55.9	94	54.2	0	1	315	0.00	29.845 
07:35	56.0	56.0	56.0	94	54.3	0	1	315	0.00	29.844 
07:40	56.2	56.2	56.2	94	54.5	0	1	315	0.00	29.845 
07:45	56.3	56.3	56.3	94	54.6	0	1	315	0.00	29.846 
07:50	56.5	56.5	56.5	94	54.8	0	1	315	0.00	29.844 
07:55	56.6	56.6	56.6	94	54.9	0	2	315	0.00	29.846 
08:00	56.7	56.7	56.7	94	55.0	1	3	292	0.00	29.847 
08:05	56.9	56.9	56.9	93	54.9	1	3	270	0.00	29.847 
08:10	56.9	56.9	56.9	93	54.9	2	4	248	0.00	29.847 
08:15	56.9	56.9	56.9	92	54.6	1	3	315	0.00	29.846 
08:20	57.0	57.0	57.0	92	54.7	0	3	315	0.00	29.846 
08:25	57.2	57.2	57.2	92	54.9	1	2	270	0.00	29.846 
08:30	57.3	57.3	57.3	92	55.0	1	2	270	0.00	29.846 
08:35	57.3	57.3	57.3	92	55.0	0	2	270	0.00	29.846 
08:40	57.3	57.3	57.3	91	54.7	1	3	270	0.00	29.847 
08:45	57.3	57.3	57.3	91	54.7	1	3	270	0.00	29.847 
08:50	57.2	57.2	57.2	91	54.6	2	3	248	0.00	29.849 
08:55	57.3	57.3	57.3	91	54.7	1	4	270	0.00	29.849 
09:00	57.5	57.5	57.5	91	54.9	1	4	270	0.00	29.849 
09:05	57.6	57.6	57.6	91	55.0	1	3	292	0.00	29.850 
09:10	58.0	58.0	58.0	90	55.1	0	2	292	0.00	29.848 
09:15	58.3	58.3	58.3	89	55.1	1	3	292	0.00	29.847 
09:20	58.9	58.9	58.9	88	55.3	1	3	292	0.00	29.845 
09:25	59.0	59.0	59.0	87	55.1	1	4	248	0.00	29.845 
09:30	59.3	59.3	59.3	86	55.1	2	4	270	0.00	29.845 
09:35	59.6	59.6	59.6	85	55.1	1	3	248	0.00	29.845 
09:40	59.9	59.9	59.9	84	55.0	2	4	248	0.00	29.845 
09:45	60.2	60.2	60.2	83	55.0	1	4	270	0.00	29.844 
09:50	60.5	60.5	60.5	82	55.0	2	4	270	0.00	29.844 
09:55	60.7	60.7	60.7	82	55.2	1	3	292	0.00	29.841 
10:00	61.0	61.0	61.0	81	55.1	1	4	270	0.00	29.840 
10:05	61.3	61.3	61.3	81	55.4	1	4	270	0.00	29.842 
10:10	61.5	61.5	61.5	80	55.3	1	3	270	0.00	29.842 
10:15	61.8	61.8	61.8	80	55.6	1	4	270	0.00	29.838 
10:20	62.0	62.0	62.0	78	55.1	2	4	270	0.00	29.839 
10:25	61.8	61.8	61.8	77	54.5	1	3	315	0.00	29.838 
10:30	61.3	61.3	61.3	76	53.7	1	3	315	0.00	29.836 
10:35	61.2	61.2	61.2	76	53.6	1	4	270	0.00	29.834 
10:40	61.6	61.6	61.6	76	54.0	1	3	315	0.00	29.831 
10:45	62.7	62.7	62.7	76	55.0	1	3	315	0.00	29.829 
10:50	62.9	62.9	62.9	71	53.3	1	2	315	0.00	29.828 
10:55	62.6	62.6	62.6	71	53.1	1	2	315	0.00	29.827 
11:00	62.6	62.6	62.6	72	53.4	1	3	315	0.00	29.827 
11:05	63.2	63.2	63.2	70	53.2	1	2	315	0.00	29.825 
11:10	63.4	63.4	63.4	69	53.0	1	3	315	0.00	29.824 
11:15	63.5	63.5	63.5	66	51.9	1	4	292	0.00	29.823 
11:20	64.7	64.7	64.7	65	52.7	2	5	270	0.00	29.820 
11:25	65.5	65.5	65.5	64	53.0	1	3	248	0.00	29.817 
11:30	65.5	65.5	65.5	57	49.9	1	3	248	0.00	29.815 
11:35	64.7	64.7	64.7	57	49.1	2	4	270	0.00	29.819 
11:40	63.9	63.9	63.9	56	47.9	1	3	270	0.00	29.819 
11:45	63.9	63.9	63.9	58	48.8	1	3	270	0.00	29.814 
11:50	64.5	64.5	64.5	59	49.8	1	3	270	0.00	29.812 
11:55	65.0	65.0	65.0	56	48.9	1	4	248	0.00	29.808 
12:00	65.6	65.6	65.6	58	50.4	1	4	248	0.00	29.807 
12:05	66.3	66.3	66.3	58	51.1	1	4	270	0.00	29.804 
12:10	66.9	66.9	66.9	53	49.2	1	4	270	0.00	29.801 
12:15	66.8	66.8	66.8	48	46.5	2	6	248	0.00	29.802 
12:20	66.6	66.6	66.6	48	46.3	2	4	270	0.00	29.803 
12:25	66.4	66.4	66.4	47	45.5	2	5	270	0.00	29.800 
12:30	66.1	66.1	66.1	47	45.3	2	4	270	0.00	29.801 
12:35	66.6	66.6	66.6	49	46.8	1	4	292	0.00	29.798 
12:40	66.3	66.3	66.3	50	47.1	2	4	248	0.00	29.799 
12:45	65.5	65.5	65.5	51	46.9	3	5	270	0.00	29.802 
12:50	64.3	64.3	64.3	55	47.8	3	6	270	0.00	29.810 
12:55	63.4	63.4	63.4	58	48.4	2	5	270	0.00	29.810 
13:00	62.7	62.7	62.7	59	48.2	2	7	292	0.00	29.813 
13:05	62.4	62.4	62.4	57	47.0	2	5	292	0.00	29.812 
13:10	62.3	62.3	62.3	58	47.3	1	4	270	0.00	29.810 
13:15	62.3	62.3	62.3	57	46.9	1	3	315	0.00	29.805 
13:20	62.4	62.4	62.4	56	46.5	2	4	270	0.00	29.805 
13:25	62.4	62.4	62.4	58	47.4	2	5	292	0.00	29.806 
13:30	62.4	62.4	62.4	58	47.4	2	5	270	0.00	29.803 
13:35	62.1	62.1	62.1	58	47.1	1	3	315	0.00	29.803 
13:40	62.1	62.1	62.1	60	48.0	1	3	315	0.00	29.803 
13:45	61.8	61.8	61.8	60	47.8	2	5	315	0.00	29.802 
13:50	61.6	61.6	61.6	62	48.4	1	4	270	0.00	29.801 
13:55	61.5	61.5	61.5	64	49.2	1	4	270	0.00	29.801 
14:00	61.2	61.2	61.2	67	50.2	1	3	270	0.00	29.801 
14:05	60.7	60.7	60.7	67	49.7	1	4	315	0.00	29.803 
14:10	60.4	60.4	60.4	68	49.8	1	5	270	0.00	29.802 
14:15	60.7	60.7	60.7	68	50.1	1	4	270	0.00	29.801 
14:20	60.9	60.9	60.9	67	49.9	1	3	315	0.00	29.801 
14:25	61.0	61.0	61.0	68	50.4	1	3	292	0.00	29.801 
14:30	61.0	61.0	61.0	64	48.7	2	5	292	0.00	29.800 
14:35	61.5	61.5	61.5	64	49.2	2	4	292	0.00	29.799 
14:40	62.0	62.0	62.0	64	49.7	1	3	270	0.00	29.796 
14:45	61.8	61.8	61.8	63	49.1	2	4	292	0.00	29.798 
14:50	61.3	61.3	61.3	64	49.0	2	4	270	0.00	29.799 
14:55	61.2	61.2	61.2	62	48.1	2	6	292	0.00	29.799 
15:00	61.0	61.0	61.0	62	47.9	2	5	292	0.00	29.800 
15:05	61.0	61.0	61.0	63	48.3	1	3	292	0.00	29.799 
15:10	61.2	61.2	61.2	63	48.5	2	4	248	0.00	29.798 
15:15	61.2	61.2	61.2	63	48.5	1	4	248	0.00	29.796 
15:20	61.2	61.2	61.2	62	48.1	1	4	338	0.00	29.796 
15:25	61.2	61.2	61.2	61	47.6	1	4	270	0.00	29.797 
15:30	61.2	61.2	61.2	62	48.1	1	4	292	0.00	29.797 
15:35	61.2	61.2	61.2	61	47.6	1	3	315	0.00	29.797 
15:40	61.2	61.2	61.2	62	48.1	0	3	315	0.00	29.799 
15:45	61.0	61.0	61.0	61	47.5	2	4	270	0.00	29.799 
15:50	60.9	60.9	60.9	61	47.4	1	4	270	0.00	29.801 
15:55	60.7	60.7	60.7	61	47.2	2	5	315	0.00	29.801 
16:00	60.4	60.4	60.4	63	47.7	1	4	292	0.00	29.803 
16:05	60.2	60.2	60.2	63	47.6	1	4	315	0.00	29.802 
16:10	60.2	60.2	60.2	63	47.6	1	3	292	0.00	29.802 
16:15	60.2	60.2	60.2	63	47.6	1	3	338	0.00	29.802 
16:20	60.2	60.2	60.2	62	47.1	2	4	338	0.00	29.803 
16:25	60.2	60.2	60.2	64	48.0	1	3	338	0.00	29.803 
16:30	59.9	59.9	59.9	62	46.8	2	6	270	0.00	29.804 
16:35	59.9	59.9	59.9	63	47.3	1	4	315	0.00	29.803 
16:40	59.8	59.8	59.8	63	47.2	1	3	315	0.00	29.804 
16:45	59.5	59.5	59.5	62	46.5	1	4	315	0.00	29.805 
16:50	59.2	59.2	59.2	63	46.6	1	3	270	0.00	29.808 
16:55	59.2	59.2	59.2	63	46.6	1	3	292	0.00	29.808 
17:00	59.0	59.0	59.0	62	46.0	1	5	292	0.00	29.809 
17:05	59.0	59.0	59.0	62	46.0	1	3	315	0.00	29.806 
17:10	58.9	58.9	58.9	62	45.9	1	3	270	0.00	29.806 
17:15	58.9	58.9	58.9	63	46.3	0	2	270	0.00	29.806 
17:20	58.9	58.9	58.9	63	46.3	1	3	315	0.00	29.805 
17:25	58.9	58.9	58.9	62	45.9	1	3	292	0.00	29.804 
17:30	58.9	58.9	58.9	63	46.3	1	4	292	0.00	29.804 
17:35	58.7	58.7	58.7	62	45.7	1	3	292	0.00	29.805 
17:40	58.6	58.6	58.6	63	46.0	1	3	292	0.00	29.806 
17:45	58.4	58.4	58.4	64	46.3	1	3	315	0.00	29.812 
17:50	58.0	58.0	58.0	63	45.5	2	7	292	0.00	29.816 
17:55	57.5	57.5	57.5	63	45.0	2	4	315	0.00	29.817 
18:00	57.3	57.3	57.3	64	45.2	1	4	292	0.00	29.818 
18:05	57.0	57.0	57.0	63	44.5	2	4	315	0.00	29.820 
18:10	56.7	56.7	56.7	64	44.7	1	3	315	0.00	29.820 
18:15	56.5	56.5	56.5	65	44.9	2	6	315	0.00	29.821 
18:20	56.3	56.3	56.3	66	45.1	1	4	270	0.00	29.824 
18:25	56.2	56.2	56.2	68	45.8	1	3	315	0.00	29.824 
18:30	56.0	56.0	56.0	68	45.6	0	2	315	0.00	29.825 
18:35	56.0	56.0	56.0	69	46.0	2	7	270	0.00	29.825 
18:40	55.9	55.9	55.9	69	45.9	2	5	315	0.00	29.827 
18:45	55.7	55.7	55.7	70	46.1	1	3	270	0.00	29.826 
18:50	55.6	55.6	55.6	71	46.3	0	2	270	0.00	29.827 
18:55	55.4	55.4	55.4	72	46.5	0	1	292	0.00	29.829 
19:00	55.3	55.3	55.3	72	46.4	0	3	315	0.00	29.829 
19:05	55.3	55.3	55.3	73	46.8	0	2	315	0.00	29.827 
19:10	55.1	55.1	55.1	74	47.0	1	4	270	0.00	29.828 
19:15	55.1	55.1	55.1	74	47.0	1	5	270	0.00	29.827 
19:20	55.0	55.0	55.0	75	47.2	0	1	292	0.00	29.828 
19:25	55.0	55.0	55.0	75	47.2	0	1	292	0.00	29.831 
19:30	54.8	54.8	54.8	75	47.0	0	2	292	0.00	29.831 
19:35	54.8	54.8	54.8	75	47.0	1	3	270	0.00	29.830 
19:40	54.8	54.8	54.8	75	47.0	0	1	270	0.00	29.831 
19:45	54.8	54.8	54.8	76	47.4	0	1	292	0.00	29.831 
19:50	54.7	54.7	54.7	76	47.3	0	4	315	0.00	29.830 
19:55	54.7	54.7	54.7	76	47.3	0	1	315	0.00	29.828 
20:00	54.7	54.7	54.7	76	47.3	0	3	315	0.00	29.829 
20:05	54.7	54.7	54.7	76	47.3	0	2	315	0.00	29.831 
20:10	54.7	54.7	54.7	77	47.6	0	2	315	0.00	29.832 
20:15	54.7	54.7	54.7	77	47.6	0	2	315	0.00	29.832 
20:20	54.7	54.7	54.7	77	47.6	0	1	315	0.00	29.833 
20:25	54.5	54.5	54.5	77	47.4	1	3	315	0.00	29.833 
20:30	54.5	54.5	54.5	77	47.4	0	1	292	0.00	29.832 
20:35	54.4	54.4	54.4	77	47.3	0	2	292	0.00	29.831 
20:40	54.2	54.2	54.2	77	47.1	0	1	292	0.00	29.827 
20:45	53.9	53.9	53.9	78	47.2	0	1	292	0.00	29.828 
20:50	53.8	53.8	53.8	78	47.1	0	1	292	0.00	29.827 
20:55	53.6	53.6	53.6	78	46.9	0	1	292	0.00	29.829 
21:00	53.3	53.3	53.3	79	47.0	0	1	292	0.00	29.832 
21:05	53.2	53.2	53.2	79	46.9	0	1	292	0.00	29.829 
21:10	53.1	53.1	53.1	80	47.1	0	1	292	0.00	29.828 
21:15	52.9	52.9	52.9	80	46.9	0	1	292	0.00	29.825 
21:20	52.9	52.9	52.9	80	46.9	0	1	292	0.00	29.824 
21:25	52.9	52.9	52.9	80	46.9	0	1	292	0.00	29.823 
21:30	52.9	52.9	52.9	80	46.9	0	1	292	0.00	29.821 
21:35	52.9	52.9	52.9	79	46.6	0	0	---	0.00	29.821 
21:40	52.9	52.9	52.9	79	46.6	0	1	292	0.00	29.819 
21:45	52.9	52.9	52.9	79	46.6	0	1	292	0.00	29.818 
21:50	52.8	52.8	52.8	80	46.8	0	1	292	0.00	29.817 
21:55	52.6	52.6	52.6	80	46.6	0	1	292	0.00	29.815 
22:00	52.8	52.8	52.8	80	46.8	0	1	292	0.00	29.814 
22:05	52.9	52.9	52.9	79	46.6	0	1	292	0.00	29.813 
22:10	53.1	53.1	53.1	78	46.4	0	2	292	0.00	29.813 
22:15	53.2	53.2	53.2	77	46.2	0	2	292	0.00	29.812 
22:20	53.5	53.5	53.5	77	46.5	1	5	248	0.00	29.811 
22:25	53.5	53.5	53.5	76	46.1	1	3	248	0.00	29.809 
22:30	53.6	53.6	53.6	76	46.2	0	4	248	0.00	29.808 
22:35	53.6	53.6	53.6	75	45.9	0	4	270	0.00	29.808 
22:40	53.6	53.6	53.6	76	46.2	0	1	270	0.00	29.807 
22:45	53.5	53.5	53.5	75	45.8	0	2	270	0.00	29.806 
22:50	53.5	53.5	53.5	75	45.8	0	1	270	0.00	29.808 
22:55	53.5	53.5	53.5	75	45.8	0	1	270	0.00	29.807 
23:00	53.3	53.3	53.3	75	45.6	0	1	270	0.00	29.808 
23:05	53.3	53.3	53.3	76	45.9	0	2	270	0.00	29.806 
23:10	53.2	53.2	53.2	76	45.8	0	1	270	0.00	29.806 
23:15	53.2	53.2	53.2	76	45.8	0	1	270	0.00	29.804 
23:20	53.2	53.2	53.2	76	45.8	1	2	270	0.00	29.802 
23:25	53.2	53.2	53.2	76	45.8	1	2	270	0.00	29.802 
23:30	53.2	53.2	53.2	76	45.8	1	3	292	0.00	29.802 
23:35	53.2	53.2	53.2	77	46.2	1	4	248	0.00	29.801 
23:40	53.1	53.1	53.1	77	46.1	0	2	270	0.00	29.802 
23:45	52.9	52.9	52.9	78	46.2	0	2	315	0.00	29.801 
23:50	52.9	52.9	52.9	78	46.2	0	2	315	0.00	29.800 
23:55	52.8	52.8	52.8	78	46.1	0	2	315	0.00	29.800 

CoCoRaHS
IN-AL-39
A2 Web Hosting
Creative Commons License
GoDaddy
Look for:

loaded 2017-10-17 00:09:43 • last modified 2010-11-18 10:43:29
Privacy PolicyDisclaimer
• wx.awcolley.com is powered by PmWiki v.2002016 •
• all content (unless otherwise noted) © 2017 A W Colley